Jupiter Spirit — A8ZC2 — position and weather

sailwx.info

Track history (hours):
 
Tides and Currents Weather Stations Pressure Air Temp Water Temp Dewpoint Dewpoint Depression Visibility Wind Speed Wind Dir Waves Ship Positions

Jupiter Spirit

Last reported at 2014-Nov-25 20:32 UTC. Time now 2014-Nov-25 20:48 UTC.
Position N 54°03' E 008°07'.

Length 183 m; draft 8.1 m.

Type: Cargo ship. MMSI: 636015173.

Date/timePositionNaut miles runAvg speedWind from/ knotsBaromVisibWave heightAir tempDewpointWater temp
2014-Nov-25 20:32N 54°03' E 008°07'0 0.0
2014-Nov-25 19:32N 54°03' E 008°07'0 0.0
2014-Nov-25 18:32N 54°03' E 008°07'0 0.0
2014-Nov-25 17:32N 54°03' E 008°07'0 0.0
2014-Nov-25 16:32N 54°03' E 008°07'0 0.0
2014-Nov-25 15:32N 54°03' E 008°07'0 0.0
2014-Nov-25 14:32N 54°03' E 008°07'0 0.0
2014-Nov-25 13:32N 54°03' E 008°08'0 0.0
2014-Nov-25 12:32N 54°03' E 008°08'0 0.0
2014-Nov-25 11:32N 54°03' E 008°08'0 0.3
2014-Nov-25 10:34N 54°02' E 008°07'1514.6
2014-Nov-25 09:33N 53°57' E 007°44'1515.2
2014-Nov-25 08:33N 53°53' E 007°19'4214.1
2014-Nov-25 05:33N 53°43' E 006°10'1313.1
2014-Nov-25 04:33N 53°39' E 005°49'1312.8
2014-Nov-25 03:34N 53°35' E 005°28'1312.7
2014-Nov-25 02:34N 53°31' E 005°08'1312.9
2014-Nov-25 01:34N 53°26' E 004°48'1512.6
2014-Nov-25 00:24N 53°14' E 004°34'2813.0
2014-Nov-24 22:18N 52°49' E 004°13'1112.7
2014-Nov-24 21:26N 52°39' E 004°06'1111.9
2014-Nov-24 20:33N 52°31' E 004°15'1211.7
2014-Nov-24 19:34N 52°28' E 004°34'3 3.0
2014-Nov-24 18:33N 52°28' E 004°39'7 6.8
2014-Nov-24 17:33N 52°25' E 004°49'0 0.3
2014-Nov-24 16:32N 52°24' E 004°49'0 0.0
2014-Nov-24 15:32N 52°24' E 004°49'0 0.0
2014-Nov-24 14:32N 52°24' E 004°49'0 0.0
2014-Nov-24 13:32N 52°24' E 004°49'0 0.0
2014-Nov-24 12:32N 52°24' E 004°49'0 0.0
2014-Nov-24 11:32N 52°24' E 004°49'0 0.0
2014-Nov-24 10:32N 52°24' E 004°49'0 0.0
2014-Nov-24 09:32N 52°24' E 004°49'0 0.0
2014-Nov-24 08:32N 52°24' E 004°49'0 0.0
2014-Nov-24 07:32N 52°24' E 004°49'0 0.0
2014-Nov-24 06:32N 52°24' E 004°49'0 0.0
2014-Nov-24 05:32N 52°24' E 004°49'0 0.0
2014-Nov-24 04:32N 52°24' E 004°49'0 0.0
2014-Nov-24 03:32N 52°24' E 004°49'0 0.0
2014-Nov-24 02:32N 52°24' E 004°49'0 0.0
2014-Nov-24 01:32N 52°24' E 004°49'0 0.0
2014-Nov-24 00:32N 52°24' E 004°49'0 0.0
2014-Nov-23 23:32N 52°24' E 004°49'0 0.0
2014-Nov-23 22:32N 52°24' E 004°49'0 0.0
2014-Nov-23 21:32N 52°24' E 004°49'0 0.0
2014-Nov-23 20:32N 52°24' E 004°49'0 0.0
2014-Nov-23 19:32N 52°24' E 004°49'0 0.0
2014-Nov-23 18:32N 52°24' E 004°49'0 0.0
2014-Nov-23 17:32N 52°24' E 004°49'0 0.0
2014-Nov-23 16:32N 52°24' E 004°49'0 0.0
2014-Nov-23 15:32N 52°24' E 004°49'0 0.0
2014-Nov-23 14:32N 52°24' E 004°49'0 0.0
2014-Nov-23 13:32N 52°24' E 004°49'0 0.0
2014-Nov-23 12:32N 52°24' E 004°49'0 0.0
2014-Nov-23 11:32N 52°24' E 004°49'0 0.0
2014-Nov-23 10:32N 52°24' E 004°49'0 0.0
2014-Nov-23 09:32N 52°24' E 004°49'0 0.0
2014-Nov-23 08:29N 52°24' E 004°49'0 0.0
2014-Nov-23 07:32N 52°24' E 004°49'0 0.0
2014-Nov-23 06:32N 52°24' E 004°49'0 0.0
2014-Nov-23 05:32N 52°24' E 004°49'0 0.0
2014-Nov-23 04:32N 52°24' E 004°49'0 0.0
2014-Nov-23 03:32N 52°24' E 004°49'0 0.0
2014-Nov-23 02:32N 52°24' E 004°49'0 0.0
2014-Nov-23 01:32N 52°24' E 004°49'0 0.0
2014-Nov-23 00:32N 52°24' E 004°49'0 0.0
2014-Nov-22 23:32N 52°24' E 004°49'0 0.0
2014-Nov-22 22:32N 52°24' E 004°49'0 0.0
2014-Nov-22 21:32N 52°24' E 004°49'0 0.0
2014-Nov-22 20:32N 52°24' E 004°49'0 0.2
2014-Nov-22 19:34N 52°25' E 004°49'6 6.4
2014-Nov-22 18:33N 52°28' E 004°40'2 2.4
2014-Nov-22 17:33N 52°28' E 004°36'9 8.5
2014-Nov-22 16:34N 52°29' E 004°22'1211.7
2014-Nov-22 15:33N 52°34' E 004°05'16816.8
2014-Nov-22 05:34N 54°21' E 000°27'1817.7
2014-Nov-22 04:34N 54°31' E 000°02'1817.6
2014-Nov-22 03:34N 54°40' W 000°24'1817.5
2014-Nov-22 02:32N 54°50' W 000°50'1717.6
2014-Nov-22 01:33N 54°60' W 001°15'4 0.2
2014-Nov-21 00:33N 55°01' W 001°22'6 6.4
2014-Nov-20 23:32N 54°58' W 001°12'1818.1
2014-Nov-20 22:33N 54°45' W 000°51'1818.7
2014-Nov-20 21:33N 54°32' W 000°28'1919.1
2014-Nov-20 20:33N 54°17' W 000°07'1919.2
2014-Nov-20 19:33N 54°03' E 000°16'1918.6
2014-Nov-20 18:33N 53°49' E 000°37'4217.0
2014-Nov-20 16:03N 53°13' E 001°15'917.1
2014-Nov-20 15:33N 53°06' E 001°22'1818.0
2014-Nov-20 14:33N 52°53' E 001°42'1817.6
2014-Nov-20 13:33N 52°39' E 002°01'2020.0
2014-Nov-20 12:33N 52°20' E 001°57'2020.0
2014-Nov-20 11:33N 51°60' E 001°50'1918.9
2014-Nov-20 10:33N 51°41' E 001°49'1918.8
2014-Nov-20 09:34N 51°23' E 001°45'1717.2
2014-Nov-20 08:33N 51°05' E 001°40'1817.9
2014-Nov-20 07:33N 50°51' E 001°24'11115.9
2014-Nov-20 00:33N 50°21' W 001°25'5215.8
2014-Nov-19 21:14N 50°24' W 002°47'1217.5
2014-Nov-19 20:33N 50°24' W 003°06'1313.0
2014-Nov-19 19:34N 50°21' W 003°26'1917.1
2014-Nov-19 18:28N 50°04' W 003°37'76117.2
2014-Nov-17 22:05N 38°09' W 009°41'916.4
2014-Nov-17 21:33N 38°00' W 009°39'1716.8
2014-Nov-17 20:33N 37°44' W 009°35'21915.3
2014-Nov-17 06:12N 35°58' W 005°35'914.7
2014-Nov-17 05:33N 35°60' W 005°24'23212.6
2014-Nov-16 11:05N 37°21' W 000°52'713.3
2014-Nov-16 10:33N 37°25' W 000°45'1413.8
2014-Nov-16 09:33N 37°35' W 000°33'1413.7
2014-Nov-16 08:33N 37°46' W 000°23'1616.1
2014-Nov-16 07:33N 38°00' W 000°12'12113.4
2014-Nov-15 22:32N 39°45' E 001°06'1312.9
2014-Nov-15 21:33N 39°56' E 001°13'1312.7
2014-Nov-15 20:33N 40°07' E 001°21'  
Track history (hours):
 
Tides and Currents Weather Stations Pressure Air Temp Water Temp Dewpoint Dewpoint Depression Visibility Wind Speed Wind Dir Waves Ship Positions

Jupiter Spirit

Last reported at 2014-Nov-25 20:32 UTC. Time now 2014-Nov-25 20:48 UTC.
Position N 54°03' E 008°07'.

Length 183 m; draft 8.1 m.

Type: Cargo ship. MMSI: 636015173.

Date/timePositionNaut miles runAvg speedWind from/ knotsBaromVisibWave heightAir tempDewpointWater temp
2014-Nov-25 20:32N 54°03' E 008°07'0 0.0
2014-Nov-25 19:32N 54°03' E 008°07'0 0.0
2014-Nov-25 18:32N 54°03' E 008°07'0 0.0
2014-Nov-25 17:32N 54°03' E 008°07'0 0.0
2014-Nov-25 16:32N 54°03' E 008°07'0 0.0
2014-Nov-25 15:32N 54°03' E 008°07'0 0.0
2014-Nov-25 14:32N 54°03' E 008°07'0 0.0
2014-Nov-25 13:32N 54°03' E 008°08'0 0.0
2014-Nov-25 12:32N 54°03' E 008°08'0 0.0
2014-Nov-25 11:32N 54°03' E 008°08'0 0.3
2014-Nov-25 10:34N 54°02' E 008°07'1514.6
2014-Nov-25 09:33N 53°57' E 007°44'1515.2
2014-Nov-25 08:33N 53°53' E 007°19'4214.1
2014-Nov-25 05:33N 53°43' E 006°10'1313.1
2014-Nov-25 04:33N 53°39' E 005°49'1312.8
2014-Nov-25 03:34N 53°35' E 005°28'1312.7
2014-Nov-25 02:34N 53°31' E 005°08'1312.9
2014-Nov-25 01:34N 53°26' E 004°48'1512.6
2014-Nov-25 00:24N 53°14' E 004°34'2813.0
2014-Nov-24 22:18N 52°49' E 004°13'1112.7
2014-Nov-24 21:26N 52°39' E 004°06'1111.9
2014-Nov-24 20:33N 52°31' E 004°15'1211.7
2014-Nov-24 19:34N 52°28' E 004°34'3 3.0
2014-Nov-24 18:33N 52°28' E 004°39'7 6.8
2014-Nov-24 17:33N 52°25' E 004°49'0 0.3
2014-Nov-24 16:32N 52°24' E 004°49'0 0.0
2014-Nov-24 15:32N 52°24' E 004°49'0 0.0
2014-Nov-24 14:32N 52°24' E 004°49'0 0.0
2014-Nov-24 13:32N 52°24' E 004°49'0 0.0
2014-Nov-24 12:32N 52°24' E 004°49'0 0.0
2014-Nov-24 11:32N 52°24' E 004°49'0 0.0
2014-Nov-24 10:32N 52°24' E 004°49'0 0.0
2014-Nov-24 09:32N 52°24' E 004°49'0 0.0
2014-Nov-24 08:32N 52°24' E 004°49'0 0.0
2014-Nov-24 07:32N 52°24' E 004°49'0 0.0
2014-Nov-24 06:32N 52°24' E 004°49'0 0.0
2014-Nov-24 05:32N 52°24' E 004°49'0 0.0
2014-Nov-24 04:32N 52°24' E 004°49'0 0.0
2014-Nov-24 03:32N 52°24' E 004°49'0 0.0
2014-Nov-24 02:32N 52°24' E 004°49'0 0.0
2014-Nov-24 01:32N 52°24' E 004°49'0 0.0
2014-Nov-24 00:32N 52°24' E 004°49'0 0.0
2014-Nov-23 23:32N 52°24' E 004°49'0 0.0
2014-Nov-23 22:32N 52°24' E 004°49'0 0.0
2014-Nov-23 21:32N 52°24' E 004°49'0 0.0
2014-Nov-23 20:32N 52°24' E 004°49'0 0.0
2014-Nov-23 19:32N 52°24' E 004°49'0 0.0
2014-Nov-23 18:32N 52°24' E 004°49'0 0.0
2014-Nov-23 17:32N 52°24' E 004°49'0 0.0
2014-Nov-23 16:32N 52°24' E 004°49'0 0.0
2014-Nov-23 15:32N 52°24' E 004°49'0 0.0
2014-Nov-23 14:32N 52°24' E 004°49'0 0.0
2014-Nov-23 13:32N 52°24' E 004°49'0 0.0
2014-Nov-23 12:32N 52°24' E 004°49'0 0.0
2014-Nov-23 11:32N 52°24' E 004°49'0 0.0
2014-Nov-23 10:32N 52°24' E 004°49'0 0.0
2014-Nov-23 09:32N 52°24' E 004°49'0 0.0
2014-Nov-23 08:29N 52°24' E 004°49'0 0.0
2014-Nov-23 07:32N 52°24' E 004°49'0 0.0
2014-Nov-23 06:32N 52°24' E 004°49'0 0.0
2014-Nov-23 05:32N 52°24' E 004°49'0 0.0
2014-Nov-23 04:32N 52°24' E 004°49'0 0.0
2014-Nov-23 03:32N 52°24' E 004°49'0 0.0
2014-Nov-23 02:32N 52°24' E 004°49'0 0.0
2014-Nov-23 01:32N 52°24' E 004°49'0 0.0
2014-Nov-23 00:32N 52°24' E 004°49'0 0.0
2014-Nov-22 23:32N 52°24' E 004°49'0 0.0
2014-Nov-22 22:32N 52°24' E 004°49'0 0.0
2014-Nov-22 21:32N 52°24' E 004°49'0 0.0
2014-Nov-22 20:32N 52°24' E 004°49'0 0.2
2014-Nov-22 19:34N 52°25' E 004°49'6 6.4
2014-Nov-22 18:33N 52°28' E 004°40'2 2.4
2014-Nov-22 17:33N 52°28' E 004°36'9 8.5
2014-Nov-22 16:34N 52°29' E 004°22'1211.7
2014-Nov-22 15:33N 52°34' E 004°05'16816.8
2014-Nov-22 05:34N 54°21' E 000°27'1817.7
2014-Nov-22 04:34N 54°31' E 000°02'1817.6
2014-Nov-22 03:34N 54°40' W 000°24'1817.5
2014-Nov-22 02:32N 54°50' W 000°50'1717.6
2014-Nov-22 01:33N 54°60' W 001°15'4 0.2
2014-Nov-21 00:33N 55°01' W 001°22'6 6.4
2014-Nov-20 23:32N 54°58' W 001°12'1818.1
2014-Nov-20 22:33N 54°45' W 000°51'1818.7
2014-Nov-20 21:33N 54°32' W 000°28'1919.1
2014-Nov-20 20:33N 54°17' W 000°07'1919.2
2014-Nov-20 19:33N 54°03' E 000°16'1918.6
2014-Nov-20 18:33N 53°49' E 000°37'4217.0
2014-Nov-20 16:03N 53°13' E 001°15'917.1
2014-Nov-20 15:33N 53°06' E 001°22'1818.0
2014-Nov-20 14:33N 52°53' E 001°42'1817.6
2014-Nov-20 13:33N 52°39' E 002°01'2020.0
2014-Nov-20 12:33N 52°20' E 001°57'2020.0
2014-Nov-20 11:33N 51°60' E 001°50'1918.9
2014-Nov-20 10:33N 51°41' E 001°49'1918.8
2014-Nov-20 09:34N 51°23' E 001°45'1717.2
2014-Nov-20 08:33N 51°05' E 001°40'1817.9
2014-Nov-20 07:33N 50°51' E 001°24'11115.9
2014-Nov-20 00:33N 50°21' W 001°25'5215.8
2014-Nov-19 21:14N 50°24' W 002°47'1217.5
2014-Nov-19 20:33N 50°24' W 003°06'1313.0
2014-Nov-19 19:34N 50°21' W 003°26'1917.1
2014-Nov-19 18:28N 50°04' W 003°37'76117.2
2014-Nov-17 22:05N 38°09' W 009°41'916.4
2014-Nov-17 21:33N 38°00' W 009°39'1716.8
2014-Nov-17 20:33N 37°44' W 009°35'21915.3
2014-Nov-17 06:12N 35°58' W 005°35'914.7
2014-Nov-17 05:33N 35°60' W 005°24'23212.6
2014-Nov-16 11:05N 37°21' W 000°52'713.3
2014-Nov-16 10:33N 37°25' W 000°45'1413.8
2014-Nov-16 09:33N 37°35' W 000°33'1413.7
2014-Nov-16 08:33N 37°46' W 000°23'1616.1
2014-Nov-16 07:33N 38°00' W 000°12'12113.4
2014-Nov-15 22:32N 39°45' E 001°06'1312.9
2014-Nov-15 21:33N 39°56' E 001°13'1312.7
2014-Nov-15 20:33N 40°07' E 001°21'  

Dump ship's entire track history